This is the latest recevied weather packets stored in our database for station/object WD9U. If no packets are shown the sender has not sent any weather packets the latest 10 day(s).
| Time | Temp. | Humidity | Pressure | Rain* | Wind** | Luminosity | Snow |
|---|---|---|---|---|---|---|---|
| 1777491894 | 4.44° C | 66% | 1018.8 hPa | 0 mm | - | 342 W/m² | - |
| 1777491533 | 3.89° C | 68% | 1018.7 hPa | 0 mm | - | 276 W/m² | - |
| 1777491174 | 3.89° C | 70% | 1018.9 hPa | 0 mm | - | 223 W/m² | - |
| 1777491046 | 3.89° C | 70% | 1018.8 hPa | 0 mm | - | 210 W/m² | - |
| 1777490814 | 3.89° C | 70% | 1018.8 hPa | 0 mm | - | 200 W/m² | - |
| 1777490453 | 3.89° C | 71% | 1018.7 hPa | 0 mm | - | 206 W/m² | - |
| 1777490094 | 3.89° C | 71% | 1018.7 hPa | 0 mm | - | 210 W/m² | - |
| 1777489846 | 3.89° C | 71% | 1018.7 hPa | 0 mm | - | 184 W/m² | - |
| 1777489733 | 3.89° C | 70% | 1018.7 hPa | 0 mm | - | 168 W/m² | - |
| 1777489372 | 3.89° C | 70% | 1018.6 hPa | 0 mm | - | 141 W/m² | - |
| 1777489012 | 3.89° C | 71% | 1018.5 hPa | 0 mm | - | 149 W/m² | - |
| 1777488652 | 3.89° C | 73% | 1018.4 hPa | 0 mm | - | 164 W/m² | - |
| 1777488292 | 4.44° C | 71% | 1018.6 hPa | 0 mm | - | 189 W/m² | - |
| 1777487932 | 5° C | 69% | 1018.5 hPa | 0 mm | - | 234 W/m² | - |
| 1777487572 | 5.56° C | 64% | 1018.3 hPa | 0 mm | - | 274 W/m² | - |
| 1777487446 | 5.56° C | 62% | 1018.5 hPa | 0 mm | - | 302 W/m² | - |
| 1777487212 | 6.11° C | 60% | 1018.3 hPa | 0 mm | - | 356 W/m² | - |
| 1777486852 | 6.11° C | 58% | 1018.2 hPa | 0 mm | - | 288 W/m² | - |
| 1777486492 | 6.67° C | 52% | 1018 hPa | 0 mm | - | 294 W/m² | - |
| 1777486245 | 6.67° C | 53% | 1018 hPa | 0 mm | - | 283 W/m² | - |
| 1777486132 | 7.22° C | 52% | 1017.9 hPa | 0 mm | - | 276 W/m² | - |
| 1777485772 | 7.22° C | 49% | 1017.8 hPa | 0 mm | - | 406 W/m² | - |
| 1777485412 | 7.22° C | 48% | 1017.8 hPa | 0 mm | - | 388 W/m² | - |
| 1777485045 | 7.22° C | 46% | 1017.8 hPa | 0 mm | - | 368 W/m² | - |
| 1777484692 | 7.22° C | 43% | 1017.7 hPa | 0 mm | - | 327 W/m² | - |
* Rain latest hour (hover to see other rain measurements)
** Current wind speed in m/s (hover to see current wind gust speed)